sensor_id;sensor_type;location;lat;lon;timestamp;P1;durP1;ratioP1;P2;durP2;ratioP2
18194;SDS011;9223;50.988;3.162;2023-07-16T00:06:02;4.07;;;2.40;;
18194;SDS011;9223;50.988;3.162;2023-07-16T00:12:07;10.05;;;2.75;;
18194;SDS011;9223;50.988;3.162;2023-07-16T00:18:11;5.47;;;2.95;;
18194;SDS011;9223;50.988;3.162;2023-07-16T00:24:14;7.00;;;3.20;;
18194;SDS011;9223;50.988;3.162;2023-07-16T00:30:20;4.53;;;2.70;;
18194;SDS011;9223;50.988;3.162;2023-07-16T00:36:23;4.75;;;2.45;;
18194;SDS011;9223;50.988;3.162;2023-07-16T00:42:27;6.90;;;2.80;;
18194;SDS011;9223;50.988;3.162;2023-07-16T00:48:31;4.82;;;2.42;;
18194;SDS011;9223;50.988;3.162;2023-07-16T00:54:35;4.63;;;2.55;;
18194;SDS011;9223;50.988;3.162;2023-07-16T01:00:39;6.18;;;2.08;;
18194;SDS011;9223;50.988;3.162;2023-07-16T01:06:45;5.57;;;2.08;;
18194;SDS011;9223;50.988;3.162;2023-07-16T01:12:51;8.43;;;2.33;;
18194;SDS011;9223;50.988;3.162;2023-07-16T01:18:55;4.82;;;2.10;;
18194;SDS011;9223;50.988;3.162;2023-07-16T01:25:09;4.43;;;2.30;;
18194;SDS011;9223;50.988;3.162;2023-07-16T01:31:14;3.85;;;2.47;;
18194;SDS011;9223;50.988;3.162;2023-07-16T01:37:18;4.57;;;2.55;;
18194;SDS011;9223;50.988;3.162;2023-07-16T01:43:22;5.30;;;2.42;;
18194;SDS011;9223;50.988;3.162;2023-07-16T01:49:27;3.83;;;2.45;;
18194;SDS011;9223;50.988;3.162;2023-07-16T01:55:31;5.22;;;2.88;;
18194;SDS011;9223;50.988;3.162;2023-07-16T02:01:34;5.20;;;3.30;;
18194;SDS011;9223;50.988;3.162;2023-07-16T02:07:39;5.65;;;3.53;;
18194;SDS011;9223;50.988;3.162;2023-07-16T02:13:43;6.40;;;3.60;;
18194;SDS011;9223;50.988;3.162;2023-07-16T02:19:46;5.05;;;3.38;;
18194;SDS011;9223;50.988;3.162;2023-07-16T02:25:53;5.60;;;4.00;;
18194;SDS011;9223;50.988;3.162;2023-07-16T02:31:57;5.93;;;3.55;;
18194;SDS011;9223;50.988;3.162;2023-07-16T02:38:01;6.07;;;3.78;;
18194;SDS011;9223;50.988;3.162;2023-07-16T02:44:06;5.47;;;3.42;;
18194;SDS011;9223;50.988;3.162;2023-07-16T02:50:10;6.25;;;3.63;;
18194;SDS011;9223;50.988;3.162;2023-07-16T02:56:13;5.85;;;3.75;;
18194;SDS011;9223;50.988;3.162;2023-07-16T03:02:19;4.95;;;4.00;;
18194;SDS011;9223;50.988;3.162;2023-07-16T03:08:23;5.53;;;4.05;;
18194;SDS011;9223;50.988;3.162;2023-07-16T03:14:31;4.93;;;3.10;;
18194;SDS011;9223;50.988;3.162;2023-07-16T03:20:36;7.22;;;4.10;;
18194;SDS011;9223;50.988;3.162;2023-07-16T03:26:39;5.32;;;3.58;;
18194;SDS011;9223;50.988;3.162;2023-07-16T03:32:43;4.80;;;3.45;;
18194;SDS011;9223;50.988;3.162;2023-07-16T03:38:55;5.80;;;3.83;;
18194;SDS011;9223;50.988;3.162;2023-07-16T03:44:58;5.95;;;3.42;;
18194;SDS011;9223;50.988;3.162;2023-07-16T03:51:02;8.25;;;4.68;;
18194;SDS011;9223;50.988;3.162;2023-07-16T03:57:07;5.43;;;3.78;;
18194;SDS011;9223;50.988;3.162;2023-07-16T04:03:11;5.60;;;3.42;;
18194;SDS011;9223;50.988;3.162;2023-07-16T04:09:14;5.63;;;3.40;;
18194;SDS011;9223;50.988;3.162;2023-07-16T04:15:19;6.20;;;3.40;;
18194;SDS011;9223;50.988;3.162;2023-07-16T04:21:22;6.80;;;3.67;;
18194;SDS011;9223;50.988;3.162;2023-07-16T04:27:26;6.05;;;3.88;;
18194;SDS011;9223;50.988;3.162;2023-07-16T04:33:31;6.00;;;4.10;;
18194;SDS011;9223;50.988;3.162;2023-07-16T04:39:35;9.27;;;4.50;;
18194;SDS011;9223;50.988;3.162;2023-07-16T04:45:38;7.13;;;4.50;;
18194;SDS011;9223;50.988;3.162;2023-07-16T04:51:43;6.43;;;4.72;;
18194;SDS011;9223;50.988;3.162;2023-07-16T04:57:47;6.50;;;3.78;;
18194;SDS011;9223;50.988;3.162;2023-07-16T05:03:50;7.43;;;4.60;;
18194;SDS011;9223;50.988;3.162;2023-07-16T05:09:57;9.10;;;4.43;;
18194;SDS011;9223;50.988;3.162;2023-07-16T05:16:00;10.38;;;5.03;;
18194;SDS011;9223;50.988;3.162;2023-07-16T05:22:04;8.07;;;4.82;;
18194;SDS011;9223;50.988;3.162;2023-07-16T05:28:09;6.40;;;4.25;;
18194;SDS011;9223;50.988;3.162;2023-07-16T05:34:12;6.35;;;4.05;;
18194;SDS011;9223;50.988;3.162;2023-07-16T05:40:16;8.13;;;4.90;;
18194;SDS011;9223;50.988;3.162;2023-07-16T05:46:21;7.10;;;4.18;;
18194;SDS011;9223;50.988;3.162;2023-07-16T05:52:25;7.50;;;4.65;;
18194;SDS011;9223;50.988;3.162;2023-07-16T05:58:29;6.10;;;3.97;;
18194;SDS011;9223;50.988;3.162;2023-07-16T06:04:34;7.40;;;4.40;;
18194;SDS011;9223;50.988;3.162;2023-07-16T06:10:37;6.95;;;4.90;;
18194;SDS011;9223;50.988;3.162;2023-07-16T06:16:41;7.65;;;4.65;;
18194;SDS011;9223;50.988;3.162;2023-07-16T06:22:46;9.13;;;4.30;;
18194;SDS011;9223;50.988;3.162;2023-07-16T06:28:50;7.57;;;4.75;;
18194;SDS011;9223;50.988;3.162;2023-07-16T06:34:54;9.32;;;4.80;;
18194;SDS011;9223;50.988;3.162;2023-07-16T06:40:59;7.28;;;4.60;;
18194;SDS011;9223;50.988;3.162;2023-07-16T06:47:03;4.95;;;4.38;;
18194;SDS011;9223;50.988;3.162;2023-07-16T06:53:07;5.97;;;4.38;;
18194;SDS011;9223;50.988;3.162;2023-07-16T06:59:11;6.75;;;4.43;;
18194;SDS011;9223;50.988;3.162;2023-07-16T07:05:15;6.97;;;4.07;;
18194;SDS011;9223;50.988;3.162;2023-07-16T07:11:19;7.60;;;4.40;;
18194;SDS011;9223;50.988;3.162;2023-07-16T07:17:23;8.13;;;4.28;;
18194;SDS011;9223;50.988;3.162;2023-07-16T07:23:27;5.47;;;3.92;;
18194;SDS011;9223;50.988;3.162;2023-07-16T07:29:30;5.70;;;3.83;;
18194;SDS011;9223;50.988;3.162;2023-07-16T07:35:36;7.63;;;4.32;;
18194;SDS011;9223;50.988;3.162;2023-07-16T07:41:39;7.38;;;4.32;;
18194;SDS011;9223;50.988;3.162;2023-07-16T07:47:43;6.28;;;3.72;;
18194;SDS011;9223;50.988;3.162;2023-07-16T07:53:48;6.57;;;3.97;;
18194;SDS011;9223;50.988;3.162;2023-07-16T07:59:52;9.65;;;4.15;;
18194;SDS011;9223;50.988;3.162;2023-07-16T08:05:58;5.15;;;3.53;;
18194;SDS011;9223;50.988;3.162;2023-07-16T08:12:04;5.35;;;3.65;;
18194;SDS011;9223;50.988;3.162;2023-07-16T08:18:10;7.82;;;3.90;;
18194;SDS011;9223;50.988;3.162;2023-07-16T08:24:14;9.02;;;3.92;;
18194;SDS011;9223;50.988;3.162;2023-07-16T08:30:19;8.50;;;3.78;;
18194;SDS011;9223;50.988;3.162;2023-07-16T08:36:22;7.90;;;4.10;;
18194;SDS011;9223;50.988;3.162;2023-07-16T08:42:26;6.70;;;3.22;;
18194;SDS011;9223;50.988;3.162;2023-07-16T08:48:31;6.78;;;3.50;;
18194;SDS011;9223;50.988;3.162;2023-07-16T08:54:35;5.95;;;3.42;;
18194;SDS011;9223;50.988;3.162;2023-07-16T09:00:38;6.15;;;3.08;;
18194;SDS011;9223;50.988;3.162;2023-07-16T09:06:43;3.38;;;2.22;;
18194;SDS011;9223;50.988;3.162;2023-07-16T09:12:47;6.65;;;2.67;;
18194;SDS011;9223;50.988;3.162;2023-07-16T09:18:50;3.38;;;2.38;;
18194;SDS011;9223;50.988;3.162;2023-07-16T09:24:55;3.75;;;1.70;;
18194;SDS011;9223;50.988;3.162;2023-07-16T09:31:03;5.18;;;1.80;;
18194;SDS011;9223;50.988;3.162;2023-07-16T09:37:06;3.35;;;1.60;;
18194;SDS011;9223;50.988;3.162;2023-07-16T09:43:11;4.43;;;1.70;;
18194;SDS011;9223;50.988;3.162;2023-07-16T09:49:15;2.08;;;1.20;;
18194;SDS011;9223;50.988;3.162;2023-07-16T09:55:20;3.80;;;1.35;;
18194;SDS011;9223;50.988;3.162;2023-07-16T10:01:26;2.65;;;1.33;;
18194;SDS011;9223;50.988;3.162;2023-07-16T10:07:31;3.17;;;1.42;;
18194;SDS011;9223;50.988;3.162;2023-07-16T10:13:35;2.55;;;1.00;;
18194;SDS011;9223;50.988;3.162;2023-07-16T10:19:50;3.03;;;1.27;;
18194;SDS011;9223;50.988;3.162;2023-07-16T10:26:00;3.35;;;1.40;;
18194;SDS011;9223;50.988;3.162;2023-07-16T10:32:07;4.50;;;1.73;;
18194;SDS011;9223;50.988;3.162;2023-07-16T10:38:13;2.78;;;1.52;;
18194;SDS011;9223;50.988;3.162;2023-07-16T10:44:20;2.20;;;1.30;;
18194;SDS011;9223;50.988;3.162;2023-07-16T10:50:23;3.92;;;1.58;;
18194;SDS011;9223;50.988;3.162;2023-07-16T10:56:28;3.35;;;1.30;;
18194;SDS011;9223;50.988;3.162;2023-07-16T11:02:32;2.72;;;1.30;;
18194;SDS011;9223;50.988;3.162;2023-07-16T11:08:35;4.95;;;1.50;;
18194;SDS011;9223;50.988;3.162;2023-07-16T11:14:42;3.80;;;1.40;;
18194;SDS011;9223;50.988;3.162;2023-07-16T11:20:46;2.15;;;1.27;;
18194;SDS011;9223;50.988;3.162;2023-07-16T11:26:53;3.63;;;1.92;;
18194;SDS011;9223;50.988;3.162;2023-07-16T11:33:00;2.50;;;1.20;;
18194;SDS011;9223;50.988;3.162;2023-07-16T11:39:03;5.22;;;1.63;;
18194;SDS011;9223;50.988;3.162;2023-07-16T11:45:14;3.03;;;1.50;;
18194;SDS011;9223;50.988;3.162;2023-07-16T11:51:19;3.38;;;1.30;;
18194;SDS011;9223;50.988;3.162;2023-07-16T11:57:23;3.22;;;1.10;;
18194;SDS011;9223;50.988;3.162;2023-07-16T12:03:26;2.83;;;1.23;;
18194;SDS011;9223;50.988;3.162;2023-07-16T12:09:31;4.38;;;1.50;;
18194;SDS011;9223;50.988;3.162;2023-07-16T12:15:35;4.03;;;1.50;;
18194;SDS011;9223;50.988;3.162;2023-07-16T12:21:39;3.05;;;1.25;;
18194;SDS011;9223;50.988;3.162;2023-07-16T12:27:44;1.77;;;1.20;;
18194;SDS011;9223;50.988;3.162;2023-07-16T12:33:47;4.35;;;1.60;;
18194;SDS011;9223;50.988;3.162;2023-07-16T12:39:54;2.25;;;1.08;;
18194;SDS011;9223;50.988;3.162;2023-07-16T12:45:59;3.60;;;1.30;;
18194;SDS011;9223;50.988;3.162;2023-07-16T12:52:04;2.20;;;1.30;;
18194;SDS011;9223;50.988;3.162;2023-07-16T12:58:07;4.57;;;2.00;;
18194;SDS011;9223;50.988;3.162;2023-07-16T13:04:12;6.43;;;1.75;;
18194;SDS011;9223;50.988;3.162;2023-07-16T13:10:16;1.17;;;0.93;;
18194;SDS011;9223;50.988;3.162;2023-07-16T13:16:24;2.55;;;1.38;;
18194;SDS011;9223;50.988;3.162;2023-07-16T13:22:29;4.03;;;1.63;;
18194;SDS011;9223;50.988;3.162;2023-07-16T13:28:35;2.50;;;0.82;;
18194;SDS011;9223;50.988;3.162;2023-07-16T13:34:38;2.47;;;1.20;;
18194;SDS011;9223;50.988;3.162;2023-07-16T13:40:43;3.00;;;1.20;;
18194;SDS011;9223;50.988;3.162;2023-07-16T13:46:46;3.75;;;1.40;;
18194;SDS011;9223;50.988;3.162;2023-07-16T13:52:50;2.08;;;1.00;;
18194;SDS011;9223;50.988;3.162;2023-07-16T13:58:55;3.05;;;1.13;;
18194;SDS011;9223;50.988;3.162;2023-07-16T14:04:58;3.92;;;1.23;;
18194;SDS011;9223;50.988;3.162;2023-07-16T14:11:02;4.30;;;1.10;;
18194;SDS011;9223;50.988;3.162;2023-07-16T14:17:07;2.10;;;0.70;;
18194;SDS011;9223;50.988;3.162;2023-07-16T14:23:10;5.05;;;1.17;;
18194;SDS011;9223;50.988;3.162;2023-07-16T14:29:14;1.23;;;0.77;;
18194;SDS011;9223;50.988;3.162;2023-07-16T14:35:20;4.43;;;0.95;;
18194;SDS011;9223;50.988;3.162;2023-07-16T14:41:37;3.28;;;0.75;;
18194;SDS011;9223;50.988;3.162;2023-07-16T14:47:41;4.05;;;0.90;;
18194;SDS011;9223;50.988;3.162;2023-07-16T14:53:46;2.00;;;0.75;;
18194;SDS011;9223;50.988;3.162;2023-07-16T14:59:50;3.58;;;1.10;;
18194;SDS011;9223;50.988;3.162;2023-07-16T15:05:55;2.03;;;0.73;;
18194;SDS011;9223;50.988;3.162;2023-07-16T15:12:00;3.65;;;1.00;;
18194;SDS011;9223;50.988;3.162;2023-07-16T15:18:04;2.17;;;0.77;;
18194;SDS011;9223;50.988;3.162;2023-07-16T15:24:08;1.85;;;0.77;;
18194;SDS011;9223;50.988;3.162;2023-07-16T15:30:12;1.23;;;0.90;;
18194;SDS011;9223;50.988;3.162;2023-07-16T15:36:17;1.30;;;0.75;;
18194;SDS011;9223;50.988;3.162;2023-07-16T15:42:21;1.90;;;1.20;;
18194;SDS011;9223;50.988;3.162;2023-07-16T15:48:26;2.17;;;1.10;;
18194;SDS011;9223;50.988;3.162;2023-07-16T15:54:30;1.92;;;1.10;;
18194;SDS011;9223;50.988;3.162;2023-07-16T16:00:34;2.53;;;1.60;;
18194;SDS011;9223;50.988;3.162;2023-07-16T16:06:39;2.60;;;1.38;;
18194;SDS011;9223;50.988;3.162;2023-07-16T16:12:42;2.08;;;1.10;;
18194;SDS011;9223;50.988;3.162;2023-07-16T16:18:46;3.60;;;1.10;;
18194;SDS011;9223;50.988;3.162;2023-07-16T16:24:51;1.35;;;1.10;;
18194;SDS011;9223;50.988;3.162;2023-07-16T16:30:54;2.40;;;1.20;;
18194;SDS011;9223;50.988;3.162;2023-07-16T16:36:58;3.10;;;1.25;;
18194;SDS011;9223;50.988;3.162;2023-07-16T16:43:03;2.83;;;1.55;;
18194;SDS011;9223;50.988;3.162;2023-07-16T16:49:06;1.67;;;1.05;;
18194;SDS011;9223;50.988;3.162;2023-07-16T16:55:10;6.32;;;2.13;;
18194;SDS011;9223;50.988;3.162;2023-07-16T17:01:15;5.82;;;1.48;;
18194;SDS011;9223;50.988;3.162;2023-07-16T17:07:20;3.50;;;1.17;;
18194;SDS011;9223;50.988;3.162;2023-07-16T17:13:23;4.03;;;1.40;;
18194;SDS011;9223;50.988;3.162;2023-07-16T17:19:28;2.35;;;1.20;;
18194;SDS011;9223;50.988;3.162;2023-07-16T17:25:32;4.55;;;1.52;;
18194;SDS011;9223;50.988;3.162;2023-07-16T17:31:35;4.70;;;1.60;;
18194;SDS011;9223;50.988;3.162;2023-07-16T17:37:41;3.33;;;1.40;;
18194;SDS011;9223;50.988;3.162;2023-07-16T17:43:45;2.53;;;1.58;;
18194;SDS011;9223;50.988;3.162;2023-07-16T17:49:48;3.03;;;1.27;;
18194;SDS011;9223;50.988;3.162;2023-07-16T17:55:54;2.85;;;1.10;;
18194;SDS011;9223;50.988;3.162;2023-07-16T18:01:58;4.78;;;1.70;;
18194;SDS011;9223;50.988;3.162;2023-07-16T18:08:01;5.60;;;1.50;;
18194;SDS011;9223;50.988;3.162;2023-07-16T18:14:06;2.70;;;1.00;;
18194;SDS011;9223;50.988;3.162;2023-07-16T18:20:11;5.40;;;1.25;;
18194;SDS011;9223;50.988;3.162;2023-07-16T18:26:16;4.78;;;1.75;;
18194;SDS011;9223;50.988;3.162;2023-07-16T18:32:26;3.47;;;1.27;;
18194;SDS011;9223;50.988;3.162;2023-07-16T18:38:30;3.85;;;1.50;;
18194;SDS011;9223;50.988;3.162;2023-07-16T18:44:33;4.03;;;1.20;;
18194;SDS011;9223;50.988;3.162;2023-07-16T18:50:38;2.42;;;1.17;;
18194;SDS011;9223;50.988;3.162;2023-07-16T18:56:45;2.53;;;0.98;;
18194;SDS011;9223;50.988;3.162;2023-07-16T19:02:49;1.98;;;0.90;;
18194;SDS011;9223;50.988;3.162;2023-07-16T19:08:55;3.42;;;1.38;;
18194;SDS011;9223;50.988;3.162;2023-07-16T19:14:58;3.65;;;1.40;;
18194;SDS011;9223;50.988;3.162;2023-07-16T19:21:04;3.15;;;1.50;;
18194;SDS011;9223;50.988;3.162;2023-07-16T19:27:09;3.58;;;1.00;;
18194;SDS011;9223;50.988;3.162;2023-07-16T19:33:13;3.00;;;1.27;;
18194;SDS011;9223;50.988;3.162;2023-07-16T19:39:17;1.52;;;0.82;;
18194;SDS011;9223;50.988;3.162;2023-07-16T19:45:22;3.20;;;1.27;;
18194;SDS011;9223;50.988;3.162;2023-07-16T19:51:26;3.75;;;1.10;;
18194;SDS011;9223;50.988;3.162;2023-07-16T19:57:30;2.88;;;1.20;;
18194;SDS011;9223;50.988;3.162;2023-07-16T20:03:37;3.58;;;1.10;;
18194;SDS011;9223;50.988;3.162;2023-07-16T20:09:41;3.58;;;1.20;;
18194;SDS011;9223;50.988;3.162;2023-07-16T20:15:44;1.83;;;0.85;;
18194;SDS011;9223;50.988;3.162;2023-07-16T20:21:49;4.05;;;1.00;;
18194;SDS011;9223;50.988;3.162;2023-07-16T20:27:55;3.67;;;1.05;;
18194;SDS011;9223;50.988;3.162;2023-07-16T20:33:59;3.85;;;0.98;;
18194;SDS011;9223;50.988;3.162;2023-07-16T20:40:05;2.33;;;0.65;;
18194;SDS011;9223;50.988;3.162;2023-07-16T20:46:12;1.88;;;0.90;;
18194;SDS011;9223;50.988;3.162;2023-07-16T20:52:17;2.53;;;1.10;;
18194;SDS011;9223;50.988;3.162;2023-07-16T20:58:21;3.47;;;0.90;;
18194;SDS011;9223;50.988;3.162;2023-07-16T21:04:25;2.30;;;1.02;;
18194;SDS011;9223;50.988;3.162;2023-07-16T21:10:28;2.60;;;1.10;;
18194;SDS011;9223;50.988;3.162;2023-07-16T21:16:33;2.03;;;1.05;;
18194;SDS011;9223;50.988;3.162;2023-07-16T21:22:37;6.15;;;1.10;;
18194;SDS011;9223;50.988;3.162;2023-07-16T21:28:43;2.25;;;0.88;;
18194;SDS011;9223;50.988;3.162;2023-07-16T21:34:48;2.33;;;1.00;;
18194;SDS011;9223;50.988;3.162;2023-07-16T21:40:51;2.85;;;1.15;;
18194;SDS011;9223;50.988;3.162;2023-07-16T21:46:55;2.13;;;0.77;;
18194;SDS011;9223;50.988;3.162;2023-07-16T21:53:00;3.28;;;0.90;;
18194;SDS011;9223;50.988;3.162;2023-07-16T21:59:04;1.48;;;0.80;;
18194;SDS011;9223;50.988;3.162;2023-07-16T22:05:08;2.90;;;0.90;;
18194;SDS011;9223;50.988;3.162;2023-07-16T22:11:13;2.63;;;0.90;;
18194;SDS011;9223;50.988;3.162;2023-07-16T22:17:17;2.30;;;0.65;;
18194;SDS011;9223;50.988;3.162;2023-07-16T22:23:21;1.25;;;0.80;;
18194;SDS011;9223;50.988;3.162;2023-07-16T22:29:26;3.83;;;1.25;;
18194;SDS011;9223;50.988;3.162;2023-07-16T22:35:29;3.70;;;1.35;;
18194;SDS011;9223;50.988;3.162;2023-07-16T22:41:33;3.92;;;1.20;;
18194;SDS011;9223;50.988;3.162;2023-07-16T22:47:38;2.05;;;1.00;;
18194;SDS011;9223;50.988;3.162;2023-07-16T22:53:42;1.23;;;0.90;;
18194;SDS011;9223;50.988;3.162;2023-07-16T22:59:45;3.60;;;1.40;;
18194;SDS011;9223;50.988;3.162;2023-07-16T23:05:50;2.80;;;1.80;;
18194;SDS011;9223;50.988;3.162;2023-07-16T23:11:54;4.10;;;1.45;;
18194;SDS011;9223;50.988;3.162;2023-07-16T23:17:57;3.47;;;1.83;;
18194;SDS011;9223;50.988;3.162;2023-07-16T23:24:03;5.60;;;1.67;;
18194;SDS011;9223;50.988;3.162;2023-07-16T23:30:07;4.30;;;2.00;;
18194;SDS011;9223;50.988;3.162;2023-07-16T23:36:11;6.45;;;1.58;;
18194;SDS011;9223;50.988;3.162;2023-07-16T23:42:16;3.35;;;1.50;;
18194;SDS011;9223;50.988;3.162;2023-07-16T23:48:20;4.85;;;1.42;;
18194;SDS011;9223;50.988;3.162;2023-07-16T23:54:23;3.85;;;1.50;;
